sensor_id;sensor_type;location;lat;lon;timestamp;P1;durP1;ratioP1;P2;durP2;ratioP2
5121;SDS011;2563;52.242;7.956;2022-08-14T00:00:18;12.20;;;8.57;;
5121;SDS011;2563;52.242;7.956;2022-08-14T00:02:44;10.80;;;7.80;;
5121;SDS011;2563;52.242;7.956;2022-08-14T00:05:13;13.70;;;7.53;;
5121;SDS011;2563;52.242;7.956;2022-08-14T00:07:40;11.33;;;7.83;;
5121;SDS011;2563;52.242;7.956;2022-08-14T00:10:06;10.37;;;8.10;;
5121;SDS011;2563;52.242;7.956;2022-08-14T00:12:35;13.43;;;8.00;;
5121;SDS011;2563;52.242;7.956;2022-08-14T00:15:06;11.60;;;8.40;;
5121;SDS011;2563;52.242;7.956;2022-08-14T00:17:38;13.20;;;8.37;;
5121;SDS011;2563;52.242;7.956;2022-08-14T00:20:05;13.17;;;8.87;;
5121;SDS011;2563;52.242;7.956;2022-08-14T00:22:32;11.33;;;8.70;;
5121;SDS011;2563;52.242;7.956;2022-08-14T00:24:58;13.33;;;9.20;;
5121;SDS011;2563;52.242;7.956;2022-08-14T00:27:23;12.40;;;8.10;;
5121;SDS011;2563;52.242;7.956;2022-08-14T00:29:49;11.90;;;8.63;;
5121;SDS011;2563;52.242;7.956;2022-08-14T00:32:14;15.10;;;8.57;;
5121;SDS011;2563;52.242;7.956;2022-08-14T00:34:40;14.40;;;8.60;;
5121;SDS011;2563;52.242;7.956;2022-08-14T00:37:08;12.80;;;9.33;;
5121;SDS011;2563;52.242;7.956;2022-08-14T00:39:33;14.20;;;8.70;;
5121;SDS011;2563;52.242;7.956;2022-08-14T00:41:59;11.57;;;8.03;;
5121;SDS011;2563;52.242;7.956;2022-08-14T00:44:24;11.67;;;8.53;;
5121;SDS011;2563;52.242;7.956;2022-08-14T00:46:50;13.70;;;8.90;;
5121;SDS011;2563;52.242;7.956;2022-08-14T00:49:15;21.63;;;9.17;;
5121;SDS011;2563;52.242;7.956;2022-08-14T00:51:41;12.07;;;8.53;;
5121;SDS011;2563;52.242;7.956;2022-08-14T00:54:09;11.73;;;8.57;;
5121;SDS011;2563;52.242;7.956;2022-08-14T00:56:35;11.70;;;8.70;;
5121;SDS011;2563;52.242;7.956;2022-08-14T00:59:01;11.90;;;8.33;;
5121;SDS011;2563;52.242;7.956;2022-08-14T01:01:27;16.50;;;9.03;;
5121;SDS011;2563;52.242;7.956;2022-08-14T01:03:53;9.97;;;8.37;;
5121;SDS011;2563;52.242;7.956;2022-08-14T01:06:21;11.40;;;8.87;;
5121;SDS011;2563;52.242;7.956;2022-08-14T01:08:47;14.63;;;7.97;;
5121;SDS011;2563;52.242;7.956;2022-08-14T01:11:14;11.00;;;8.63;;
5121;SDS011;2563;52.242;7.956;2022-08-14T01:13:40;11.80;;;9.40;;
5121;SDS011;2563;52.242;7.956;2022-08-14T01:16:09;17.50;;;9.10;;
5121;SDS011;2563;52.242;7.956;2022-08-14T01:18:37;12.00;;;9.10;;
5121;SDS011;2563;52.242;7.956;2022-08-14T01:21:32;15.13;;;9.00;;
5121;SDS011;2563;52.242;7.956;2022-08-14T01:24:00;13.77;;;8.60;;
5121;SDS011;2563;52.242;7.956;2022-08-14T01:26:27;24.23;;;9.47;;
5121;SDS011;2563;52.242;7.956;2022-08-14T01:28:53;17.20;;;9.50;;
5121;SDS011;2563;52.242;7.956;2022-08-14T01:31:22;18.20;;;8.57;;
5121;SDS011;2563;52.242;7.956;2022-08-14T01:33:50;12.20;;;8.13;;
5121;SDS011;2563;52.242;7.956;2022-08-14T01:36:18;14.43;;;8.67;;
5121;SDS011;2563;52.242;7.956;2022-08-14T01:38:45;11.30;;;8.37;;
5121;SDS011;2563;52.242;7.956;2022-08-14T01:41:13;12.73;;;8.97;;
5121;SDS011;2563;52.242;7.956;2022-08-14T01:46:22;10.70;;;8.53;;
5121;SDS011;2563;52.242;7.956;2022-08-14T01:48:49;15.33;;;8.30;;
5121;SDS011;2563;52.242;7.956;2022-08-14T01:51:19;14.07;;;8.97;;
5121;SDS011;2563;52.242;7.956;2022-08-14T01:53:48;14.23;;;9.47;;
5121;SDS011;2563;52.242;7.956;2022-08-14T01:56:18;11.50;;;8.77;;
5121;SDS011;2563;52.242;7.956;2022-08-14T01:58:48;12.13;;;8.70;;
5121;SDS011;2563;52.242;7.956;2022-08-14T02:01:15;12.50;;;9.33;;
5121;SDS011;2563;52.242;7.956;2022-08-14T02:03:42;13.23;;;9.00;;
5121;SDS011;2563;52.242;7.956;2022-08-14T02:06:08;11.13;;;8.53;;
5121;SDS011;2563;52.242;7.956;2022-08-14T02:08:35;12.83;;;8.90;;
5121;SDS011;2563;52.242;7.956;2022-08-14T02:11:03;11.17;;;9.03;;
5121;SDS011;2563;52.242;7.956;2022-08-14T02:13:55;19.37;;;10.23;;
5121;SDS011;2563;52.242;7.956;2022-08-14T02:16:28;14.30;;;9.20;;
5121;SDS011;2563;52.242;7.956;2022-08-14T02:18:58;13.70;;;9.53;;
5121;SDS011;2563;52.242;7.956;2022-08-14T02:21:26;13.10;;;9.33;;
5121;SDS011;2563;52.242;7.956;2022-08-14T02:23:57;12.23;;;9.73;;
5121;SDS011;2563;52.242;7.956;2022-08-14T02:26:24;13.57;;;9.80;;
5121;SDS011;2563;52.242;7.956;2022-08-14T02:28:54;15.40;;;10.10;;
5121;SDS011;2563;52.242;7.956;2022-08-14T02:31:24;13.47;;;9.70;;
5121;SDS011;2563;52.242;7.956;2022-08-14T02:33:54;12.87;;;9.23;;
5121;SDS011;2563;52.242;7.956;2022-08-14T02:36:20;13.67;;;9.40;;
5121;SDS011;2563;52.242;7.956;2022-08-14T02:38:46;15.50;;;10.20;;
5121;SDS011;2563;52.242;7.956;2022-08-14T02:41:12;15.30;;;8.43;;
5121;SDS011;2563;52.242;7.956;2022-08-14T02:43:38;12.17;;;8.97;;
5121;SDS011;2563;52.242;7.956;2022-08-14T02:46:07;13.13;;;9.30;;
5121;SDS011;2563;52.242;7.956;2022-08-14T02:48:39;14.00;;;8.93;;
5121;SDS011;2563;52.242;7.956;2022-08-14T02:51:06;11.97;;;8.97;;
5121;SDS011;2563;52.242;7.956;2022-08-14T02:53:38;12.80;;;9.33;;
5121;SDS011;2563;52.242;7.956;2022-08-14T02:56:05;14.40;;;9.93;;
5121;SDS011;2563;52.242;7.956;2022-08-14T02:58:32;16.33;;;9.40;;
5121;SDS011;2563;52.242;7.956;2022-08-14T03:01:02;14.80;;;9.43;;
5121;SDS011;2563;52.242;7.956;2022-08-14T03:03:28;15.03;;;9.43;;
5121;SDS011;2563;52.242;7.956;2022-08-14T03:05:54;12.63;;;9.03;;
5121;SDS011;2563;52.242;7.956;2022-08-14T03:08:19;13.43;;;9.33;;
5121;SDS011;2563;52.242;7.956;2022-08-14T03:10:45;12.73;;;8.67;;
5121;SDS011;2563;52.242;7.956;2022-08-14T03:13:11;13.47;;;9.40;;
5121;SDS011;2563;52.242;7.956;2022-08-14T03:15:37;16.73;;;10.30;;
5121;SDS011;2563;52.242;7.956;2022-08-14T03:18:08;15.00;;;9.60;;
5121;SDS011;2563;52.242;7.956;2022-08-14T03:20:34;16.10;;;10.53;;
5121;SDS011;2563;52.242;7.956;2022-08-14T03:23:00;13.37;;;9.80;;
5121;SDS011;2563;52.242;7.956;2022-08-14T03:25:26;12.73;;;9.47;;
5121;SDS011;2563;52.242;7.956;2022-08-14T03:27:55;14.20;;;10.33;;
5121;SDS011;2563;52.242;7.956;2022-08-14T03:30:20;15.23;;;9.90;;
5121;SDS011;2563;52.242;7.956;2022-08-14T03:32:45;17.80;;;10.10;;
5121;SDS011;2563;52.242;7.956;2022-08-14T03:35:11;15.57;;;9.00;;
5121;SDS011;2563;52.242;7.956;2022-08-14T03:37:36;17.43;;;10.17;;
5121;SDS011;2563;52.242;7.956;2022-08-14T03:40:02;14.90;;;9.93;;
5121;SDS011;2563;52.242;7.956;2022-08-14T03:42:30;13.27;;;9.07;;
5121;SDS011;2563;52.242;7.956;2022-08-14T03:44:55;16.23;;;9.40;;
5121;SDS011;2563;52.242;7.956;2022-08-14T03:47:21;12.60;;;9.40;;
5121;SDS011;2563;52.242;7.956;2022-08-14T03:49:47;14.30;;;9.73;;
5121;SDS011;2563;52.242;7.956;2022-08-14T03:52:12;18.20;;;9.60;;
5121;SDS011;2563;52.242;7.956;2022-08-14T03:54:38;12.63;;;9.97;;
5121;SDS011;2563;52.242;7.956;2022-08-14T03:57:03;12.57;;;9.77;;
5121;SDS011;2563;52.242;7.956;2022-08-14T03:59:32;15.43;;;10.30;;
5121;SDS011;2563;52.242;7.956;2022-08-14T04:01:58;13.67;;;9.03;;
5121;SDS011;2563;52.242;7.956;2022-08-14T04:04:24;13.73;;;10.00;;
5121;SDS011;2563;52.242;7.956;2022-08-14T04:06:49;15.43;;;10.10;;
5121;SDS011;2563;52.242;7.956;2022-08-14T04:09:15;14.17;;;10.00;;
5121;SDS011;2563;52.242;7.956;2022-08-14T04:11:40;13.93;;;10.60;;
5121;SDS011;2563;52.242;7.956;2022-08-14T04:14:06;14.20;;;10.53;;
5121;SDS011;2563;52.242;7.956;2022-08-14T04:16:31;14.73;;;9.43;;
5121;SDS011;2563;52.242;7.956;2022-08-14T04:18:57;18.00;;;10.13;;
5121;SDS011;2563;52.242;7.956;2022-08-14T04:21:25;12.90;;;9.27;;
5121;SDS011;2563;52.242;7.956;2022-08-14T04:23:55;15.43;;;10.17;;
5121;SDS011;2563;52.242;7.956;2022-08-14T04:26:22;13.30;;;10.13;;
5121;SDS011;2563;52.242;7.956;2022-08-14T04:28:49;13.53;;;9.47;;
5121;SDS011;2563;52.242;7.956;2022-08-14T04:31:15;17.27;;;9.80;;
5121;SDS011;2563;52.242;7.956;2022-08-14T04:33:45;17.03;;;10.17;;
5121;SDS011;2563;52.242;7.956;2022-08-14T04:36:12;20.20;;;10.73;;
5121;SDS011;2563;52.242;7.956;2022-08-14T04:38:38;14.27;;;9.47;;
5121;SDS011;2563;52.242;7.956;2022-08-14T04:41:22;14.93;;;10.00;;
5121;SDS011;2563;52.242;7.956;2022-08-14T04:44:05;21.60;;;10.80;;
5121;SDS011;2563;52.242;7.956;2022-08-14T04:46:33;14.50;;;9.90;;
5121;SDS011;2563;52.242;7.956;2022-08-14T04:48:59;14.33;;;9.77;;
5121;SDS011;2563;52.242;7.956;2022-08-14T04:51:26;17.53;;;10.03;;
5121;SDS011;2563;52.242;7.956;2022-08-14T04:53:52;14.00;;;9.17;;
5121;SDS011;2563;52.242;7.956;2022-08-14T04:56:20;13.93;;;9.80;;
5121;SDS011;2563;52.242;7.956;2022-08-14T04:58:48;15.80;;;9.10;;
5121;SDS011;2563;52.242;7.956;2022-08-14T05:01:15;12.57;;;9.23;;
5121;SDS011;2563;52.242;7.956;2022-08-14T05:03:41;12.43;;;9.20;;
5121;SDS011;2563;52.242;7.956;2022-08-14T05:06:08;12.73;;;9.30;;
5121;SDS011;2563;52.242;7.956;2022-08-14T05:08:35;14.13;;;8.90;;
5121;SDS011;2563;52.242;7.956;2022-08-14T05:11:02;17.30;;;9.60;;
5121;SDS011;2563;52.242;7.956;2022-08-14T05:13:30;18.47;;;9.70;;
5121;SDS011;2563;52.242;7.956;2022-08-14T05:15:56;17.70;;;10.17;;
5121;SDS011;2563;52.242;7.956;2022-08-14T05:18:24;14.40;;;9.70;;
5121;SDS011;2563;52.242;7.956;2022-08-14T05:20:52;14.30;;;9.23;;
5121;SDS011;2563;52.242;7.956;2022-08-14T05:23:21;12.50;;;9.13;;
5121;SDS011;2563;52.242;7.956;2022-08-14T05:25:49;15.37;;;8.50;;
5121;SDS011;2563;52.242;7.956;2022-08-14T05:28:22;15.47;;;10.23;;
5121;SDS011;2563;52.242;7.956;2022-08-14T05:30:53;17.67;;;10.23;;
5121;SDS011;2563;52.242;7.956;2022-08-14T05:33:21;13.43;;;9.90;;
5121;SDS011;2563;52.242;7.956;2022-08-14T05:35:52;13.20;;;9.13;;
5121;SDS011;2563;52.242;7.956;2022-08-14T05:38:25;16.90;;;10.17;;
5121;SDS011;2563;52.242;7.956;2022-08-14T05:41:01;12.50;;;9.20;;
5121;SDS011;2563;52.242;7.956;2022-08-14T05:43:28;12.03;;;9.33;;
5121;SDS011;2563;52.242;7.956;2022-08-14T05:45:55;16.23;;;9.80;;
5121;SDS011;2563;52.242;7.956;2022-08-14T05:48:21;12.77;;;8.27;;
5121;SDS011;2563;52.242;7.956;2022-08-14T05:50:48;12.60;;;9.73;;
5121;SDS011;2563;52.242;7.956;2022-08-14T05:53:13;12.10;;;8.63;;
5121;SDS011;2563;52.242;7.956;2022-08-14T05:55:39;24.30;;;9.50;;
5121;SDS011;2563;52.242;7.956;2022-08-14T05:58:05;17.00;;;9.60;;
5121;SDS011;2563;52.242;7.956;2022-08-14T06:00:33;13.40;;;9.50;;
5121;SDS011;2563;52.242;7.956;2022-08-14T06:02:59;16.73;;;9.90;;
5121;SDS011;2563;52.242;7.956;2022-08-14T06:05:25;14.63;;;9.10;;
5121;SDS011;2563;52.242;7.956;2022-08-14T06:07:51;19.43;;;9.27;;
5121;SDS011;2563;52.242;7.956;2022-08-14T06:10:17;11.90;;;8.90;;
5121;SDS011;2563;52.242;7.956;2022-08-14T06:12:42;16.83;;;8.67;;
5121;SDS011;2563;52.242;7.956;2022-08-14T06:15:08;10.90;;;8.50;;
5121;SDS011;2563;52.242;7.956;2022-08-14T06:17:44;14.27;;;9.30;;
5121;SDS011;2563;52.242;7.956;2022-08-14T06:20:11;12.40;;;8.47;;
5121;SDS011;2563;52.242;7.956;2022-08-14T06:22:38;13.03;;;9.00;;
5121;SDS011;2563;52.242;7.956;2022-08-14T06:25:08;13.73;;;8.20;;
5121;SDS011;2563;52.242;7.956;2022-08-14T06:27:38;15.10;;;9.47;;
5121;SDS011;2563;52.242;7.956;2022-08-14T06:30:16;14.60;;;9.37;;
5121;SDS011;2563;52.242;7.956;2022-08-14T06:32:47;12.13;;;8.70;;
5121;SDS011;2563;52.242;7.956;2022-08-14T06:35:13;14.97;;;8.77;;
5121;SDS011;2563;52.242;7.956;2022-08-14T06:37:43;10.43;;;8.10;;
5121;SDS011;2563;52.242;7.956;2022-08-14T06:40:10;11.37;;;8.13;;
5121;SDS011;2563;52.242;7.956;2022-08-14T06:42:37;12.03;;;9.03;;
5121;SDS011;2563;52.242;7.956;2022-08-14T06:45:04;11.30;;;8.80;;
5121;SDS011;2563;52.242;7.956;2022-08-14T06:47:32;32.07;;;9.57;;
5121;SDS011;2563;52.242;7.956;2022-08-14T06:50:02;10.23;;;8.33;;
5121;SDS011;2563;52.242;7.956;2022-08-14T06:52:32;10.20;;;7.90;;
5121;SDS011;2563;52.242;7.956;2022-08-14T06:54:58;13.90;;;8.23;;
5121;SDS011;2563;52.242;7.956;2022-08-14T06:57:24;12.47;;;8.70;;
5121;SDS011;2563;52.242;7.956;2022-08-14T06:59:50;14.80;;;8.87;;
5121;SDS011;2563;52.242;7.956;2022-08-14T07:02:15;12.70;;;8.33;;
5121;SDS011;2563;52.242;7.956;2022-08-14T07:04:59;13.73;;;8.20;;
5121;SDS011;2563;52.242;7.956;2022-08-14T07:07:43;11.47;;;7.90;;
5121;SDS011;2563;52.242;7.956;2022-08-14T07:10:10;12.00;;;8.20;;
5121;SDS011;2563;52.242;7.956;2022-08-14T07:12:35;14.70;;;8.73;;
5121;SDS011;2563;52.242;7.956;2022-08-14T07:15:01;10.40;;;8.20;;
5121;SDS011;2563;52.242;7.956;2022-08-14T07:17:30;13.33;;;8.50;;
5121;SDS011;2563;52.242;7.956;2022-08-14T07:19:56;11.50;;;8.73;;
5121;SDS011;2563;52.242;7.956;2022-08-14T07:22:21;13.73;;;9.00;;
5121;SDS011;2563;52.242;7.956;2022-08-14T07:24:46;11.53;;;8.57;;
5121;SDS011;2563;52.242;7.956;2022-08-14T07:27:12;12.80;;;9.07;;
5121;SDS011;2563;52.242;7.956;2022-08-14T07:29:37;12.13;;;8.87;;
5121;SDS011;2563;52.242;7.956;2022-08-14T07:32:02;10.90;;;8.33;;
5121;SDS011;2563;52.242;7.956;2022-08-14T07:34:28;11.40;;;8.50;;
5121;SDS011;2563;52.242;7.956;2022-08-14T07:36:54;14.20;;;8.10;;
5121;SDS011;2563;52.242;7.956;2022-08-14T07:39:20;9.57;;;7.90;;
5121;SDS011;2563;52.242;7.956;2022-08-14T07:41:45;12.30;;;9.37;;
5121;SDS011;2563;52.242;7.956;2022-08-14T07:44:10;12.00;;;8.97;;
5121;SDS011;2563;52.242;7.956;2022-08-14T07:46:37;11.70;;;8.20;;
5121;SDS011;2563;52.242;7.956;2022-08-14T07:49:03;10.20;;;7.60;;
5121;SDS011;2563;52.242;7.956;2022-08-14T07:51:28;14.87;;;8.70;;
5121;SDS011;2563;52.242;7.956;2022-08-14T07:53:54;11.63;;;7.97;;
5121;SDS011;2563;52.242;7.956;2022-08-14T07:56:21;14.20;;;8.50;;
5121;SDS011;2563;52.242;7.956;2022-08-14T07:58:46;10.73;;;7.73;;
5121;SDS011;2563;52.242;7.956;2022-08-14T08:01:12;10.50;;;8.47;;
5121;SDS011;2563;52.242;7.956;2022-08-14T08:03:38;12.20;;;8.07;;
5121;SDS011;2563;52.242;7.956;2022-08-14T08:06:06;8.53;;;7.63;;
5121;SDS011;2563;52.242;7.956;2022-08-14T08:08:32;13.43;;;8.60;;
5121;SDS011;2563;52.242;7.956;2022-08-14T08:10:58;11.13;;;8.40;;
5121;SDS011;2563;52.242;7.956;2022-08-14T08:13:25;11.80;;;8.80;;
5121;SDS011;2563;52.242;7.956;2022-08-14T08:15:52;9.87;;;8.03;;
5121;SDS011;2563;52.242;7.956;2022-08-14T08:18:20;12.33;;;8.77;;
5121;SDS011;2563;52.242;7.956;2022-08-14T08:20:47;12.83;;;8.80;;
5121;SDS011;2563;52.242;7.956;2022-08-14T08:23:15;10.70;;;8.40;;
5121;SDS011;2563;52.242;7.956;2022-08-14T08:25:44;21.33;;;8.40;;
5121;SDS011;2563;52.242;7.956;2022-08-14T08:28:12;9.43;;;7.67;;
5121;SDS011;2563;52.242;7.956;2022-08-14T08:30:40;10.90;;;9.63;;
5121;SDS011;2563;52.242;7.956;2022-08-14T08:33:08;12.63;;;9.10;;
5121;SDS011;2563;52.242;7.956;2022-08-14T08:35:37;14.43;;;9.23;;
5121;SDS011;2563;52.242;7.956;2022-08-14T08:38:10;11.23;;;8.37;;
5121;SDS011;2563;52.242;7.956;2022-08-14T08:40:39;13.07;;;9.03;;
5121;SDS011;2563;52.242;7.956;2022-08-14T08:43:07;10.87;;;8.50;;
5121;SDS011;2563;52.242;7.956;2022-08-14T08:45:41;19.13;;;9.47;;
5121;SDS011;2563;52.242;7.956;2022-08-14T08:48:06;10.67;;;9.07;;
5121;SDS011;2563;52.242;7.956;2022-08-14T08:50:36;10.47;;;8.47;;
5121;SDS011;2563;52.242;7.956;2022-08-14T08:53:06;9.60;;;7.93;;
5121;SDS011;2563;52.242;7.956;2022-08-14T08:55:40;12.17;;;8.00;;
5121;SDS011;2563;52.242;7.956;2022-08-14T08:58:13;9.80;;;8.23;;
5121;SDS011;2563;52.242;7.956;2022-08-14T09:00:40;10.17;;;8.43;;
5121;SDS011;2563;52.242;7.956;2022-08-14T09:03:10;10.50;;;8.70;;
5121;SDS011;2563;52.242;7.956;2022-08-14T09:06:01;13.10;;;8.37;;
5121;SDS011;2563;52.242;7.956;2022-08-14T09:08:35;9.13;;;8.10;;
5121;SDS011;2563;52.242;7.956;2022-08-14T09:11:03;8.83;;;7.80;;
5121;SDS011;2563;52.242;7.956;2022-08-14T09:13:33;9.67;;;8.33;;
5121;SDS011;2563;52.242;7.956;2022-08-14T09:15:59;9.43;;;7.80;;
5121;SDS011;2563;52.242;7.956;2022-08-14T09:18:26;9.13;;;7.63;;
5121;SDS011;2563;52.242;7.956;2022-08-14T09:20:53;10.13;;;7.97;;
5121;SDS011;2563;52.242;7.956;2022-08-14T09:23:20;9.33;;;7.20;;
5121;SDS011;2563;52.242;7.956;2022-08-14T09:25:46;12.83;;;7.47;;
5121;SDS011;2563;52.242;7.956;2022-08-14T09:28:13;9.40;;;7.53;;
5121;SDS011;2563;52.242;7.956;2022-08-14T09:30:41;7.83;;;6.90;;
5121;SDS011;2563;52.242;7.956;2022-08-14T09:38:50;8.63;;;7.67;;
5121;SDS011;2563;52.242;7.956;2022-08-14T09:47:38;11.13;;;7.40;;
5121;SDS011;2563;52.242;7.956;2022-08-14T09:50:17;10.13;;;7.40;;
5121;SDS011;2563;52.242;7.956;2022-08-14T09:53:03;9.20;;;8.20;;
5121;SDS011;2563;52.242;7.956;2022-08-14T09:55:31;8.50;;;7.70;;
5121;SDS011;2563;52.242;7.956;2022-08-14T09:58:16;12.93;;;7.67;;
5121;SDS011;2563;52.242;7.956;2022-08-14T10:00:49;8.40;;;7.60;;
5121;SDS011;2563;52.242;7.956;2022-08-14T10:03:52;8.97;;;8.07;;
5121;SDS011;2563;52.242;7.956;2022-08-14T10:06:15;13.40;;;7.67;;
5121;SDS011;2563;52.242;7.956;2022-08-14T10:08:52;7.77;;;6.97;;
5121;SDS011;2563;52.242;7.956;2022-08-14T10:14:10;9.57;;;7.20;;
5121;SDS011;2563;52.242;7.956;2022-08-14T10:46:17;9.60;;;8.37;;
5121;SDS011;2563;52.242;7.956;2022-08-14T10:48:56;9.20;;;7.30;;
5121;SDS011;2563;52.242;7.956;2022-08-14T10:51:24;11.27;;;8.10;;
5121;SDS011;2563;52.242;7.956;2022-08-14T10:53:54;10.40;;;8.00;;
5121;SDS011;2563;52.242;7.956;2022-08-14T10:56:30;8.60;;;7.70;;
5121;SDS011;2563;52.242;7.956;2022-08-14T10:59:06;10.03;;;8.00;;
5121;SDS011;2563;52.242;7.956;2022-08-14T11:01:32;8.63;;;7.73;;
5121;SDS011;2563;52.242;7.956;2022-08-14T11:03:59;8.40;;;7.57;;
5121;SDS011;2563;52.242;7.956;2022-08-14T11:06:25;9.07;;;7.80;;
5121;SDS011;2563;52.242;7.956;2022-08-14T11:08:51;10.13;;;8.10;;
5121;SDS011;2563;52.242;7.956;2022-08-14T11:11:17;13.53;;;9.00;;
5121;SDS011;2563;52.242;7.956;2022-08-14T11:13:44;14.50;;;8.03;;
5121;SDS011;2563;52.242;7.956;2022-08-14T11:16:10;13.27;;;7.23;;
5121;SDS011;2563;52.242;7.956;2022-08-14T11:18:42;8.40;;;7.50;;
5121;SDS011;2563;52.242;7.956;2022-08-14T11:21:11;12.70;;;8.40;;
5121;SDS011;2563;52.242;7.956;2022-08-14T11:23:40;10.17;;;8.50;;
5121;SDS011;2563;52.242;7.956;2022-08-14T11:26:08;9.07;;;7.93;;
5121;SDS011;2563;52.242;7.956;2022-08-14T11:28:35;8.27;;;7.47;;
5121;SDS011;2563;52.242;7.956;2022-08-14T11:31:09;8.20;;;7.37;;
5121;SDS011;2563;52.242;7.956;2022-08-14T11:33:38;8.55;;;7.47;;
5121;SDS011;2563;52.242;7.956;2022-08-14T11:36:06;8.80;;;7.60;;
5121;SDS011;2563;52.242;7.956;2022-08-14T11:41:07;7.95;;;7.15;;
5121;SDS011;2563;52.242;7.956;2022-08-14T11:43:40;11.95;;;7.88;;
5121;SDS011;2563;52.242;7.956;2022-08-14T11:46:06;9.82;;;7.80;;
5121;SDS011;2563;52.242;7.956;2022-08-14T11:48:32;12.55;;;7.70;;
5121;SDS011;2563;52.242;7.956;2022-08-14T11:51:13;9.15;;;7.70;;
5121;SDS011;2563;52.242;7.956;2022-08-14T11:53:48;10.23;;;8.02;;
5121;SDS011;2563;52.242;7.956;2022-08-14T11:56:15;9.20;;;7.00;;
5121;SDS011;2563;52.242;7.956;2022-08-14T11:58:40;7.85;;;6.90;;
5121;SDS011;2563;52.242;7.956;2022-08-14T12:01:07;8.43;;;7.05;;
5121;SDS011;2563;52.242;7.956;2022-08-14T12:03:34;8.27;;;7.30;;
5121;SDS011;2563;52.242;7.956;2022-08-14T12:06:02;6.82;;;6.22;;
5121;SDS011;2563;52.242;7.956;2022-08-14T12:08:32;7.82;;;7.03;;
5121;SDS011;2563;52.242;7.956;2022-08-14T12:10:59;8.40;;;6.93;;
5121;SDS011;2563;52.242;7.956;2022-08-14T12:13:25;8.23;;;7.43;;
5121;SDS011;2563;52.242;7.956;2022-08-14T12:15:57;8.45;;;7.65;;
5121;SDS011;2563;52.242;7.956;2022-08-14T12:18:28;8.38;;;7.57;;
5121;SDS011;2563;52.242;7.956;2022-08-14T12:21:09;8.63;;;6.80;;
5121;SDS011;2563;52.242;7.956;2022-08-14T12:23:39;8.70;;;7.30;;
5121;SDS011;2563;52.242;7.956;2022-08-14T12:26:06;9.07;;;7.90;;
5121;SDS011;2563;52.242;7.956;2022-08-14T12:28:33;7.40;;;6.65;;
5121;SDS011;2563;52.242;7.956;2022-08-14T12:30:59;9.40;;;7.05;;
5121;SDS011;2563;52.242;7.956;2022-08-14T12:33:29;8.02;;;6.90;;
5121;SDS011;2563;52.242;7.956;2022-08-14T12:36:00;7.97;;;6.85;;
5121;SDS011;2563;52.242;7.956;2022-08-14T12:38:32;10.07;;;6.55;;
5121;SDS011;2563;52.242;7.956;2022-08-14T12:40:58;11.18;;;7.03;;
5121;SDS011;2563;52.242;7.956;2022-08-14T12:43:23;10.25;;;7.90;;
5121;SDS011;2563;52.242;7.956;2022-08-14T12:45:49;8.77;;;7.97;;
5121;SDS011;2563;52.242;7.956;2022-08-14T12:48:21;8.75;;;7.22;;
5121;SDS011;2563;52.242;7.956;2022-08-14T12:50:47;8.27;;;7.47;;
5121;SDS011;2563;52.242;7.956;2022-08-14T12:53:17;7.37;;;6.70;;
5121;SDS011;2563;52.242;7.956;2022-08-14T12:55:44;7.90;;;6.60;;
5121;SDS011;2563;52.242;7.956;2022-08-14T12:58:11;11.10;;;7.90;;
5121;SDS011;2563;52.242;7.956;2022-08-14T13:00:37;7.80;;;6.80;;
5121;SDS011;2563;52.242;7.956;2022-08-14T13:03:24;7.87;;;6.53;;
5121;SDS011;2563;52.242;7.956;2022-08-14T13:05:50;8.33;;;7.43;;
5121;SDS011;2563;52.242;7.956;2022-08-14T13:08:16;8.00;;;7.20;;
5121;SDS011;2563;52.242;7.956;2022-08-14T13:10:41;7.77;;;6.73;;
5121;SDS011;2563;52.242;7.956;2022-08-14T13:13:06;7.40;;;6.57;;
5121;SDS011;2563;52.242;7.956;2022-08-14T13:15:34;7.33;;;6.60;;
5121;SDS011;2563;52.242;7.956;2022-08-14T13:18:00;8.20;;;7.40;;
5121;SDS011;2563;52.242;7.956;2022-08-14T13:20:29;11.37;;;7.17;;
5121;SDS011;2563;52.242;7.956;2022-08-14T13:22:55;7.90;;;6.63;;
5121;SDS011;2563;52.242;7.956;2022-08-14T13:25:22;8.77;;;7.40;;
5121;SDS011;2563;52.242;7.956;2022-08-14T13:27:50;8.23;;;7.47;;
5121;SDS011;2563;52.242;7.956;2022-08-14T13:30:19;7.80;;;7.10;;
5121;SDS011;2563;52.242;7.956;2022-08-14T13:32:45;7.67;;;6.87;;
5121;SDS011;2563;52.242;7.956;2022-08-14T13:35:12;8.53;;;6.90;;
5121;SDS011;2563;52.242;7.956;2022-08-14T13:37:40;7.70;;;6.87;;
5121;SDS011;2563;52.242;7.956;2022-08-14T13:40:09;10.87;;;6.97;;
5121;SDS011;2563;52.242;7.956;2022-08-14T13:42:38;9.03;;;6.70;;
5121;SDS011;2563;52.242;7.956;2022-08-14T13:45:06;7.03;;;6.20;;
5121;SDS011;2563;52.242;7.956;2022-08-14T13:47:32;10.00;;;6.80;;
5121;SDS011;2563;52.242;7.956;2022-08-14T13:50:00;8.83;;;6.57;;
5121;SDS011;2563;52.242;7.956;2022-08-14T13:52:29;7.63;;;6.83;;
5121;SDS011;2563;52.242;7.956;2022-08-14T13:55:05;8.33;;;6.87;;
5121;SDS011;2563;52.242;7.956;2022-08-14T13:57:31;7.50;;;6.70;;
5121;SDS011;2563;52.242;7.956;2022-08-14T14:00:00;8.07;;;6.50;;
5121;SDS011;2563;52.242;7.956;2022-08-14T14:02:31;7.80;;;6.40;;
5121;SDS011;2563;52.242;7.956;2022-08-14T14:04:59;7.43;;;6.10;;
5121;SDS011;2563;52.242;7.956;2022-08-14T14:07:27;8.07;;;7.00;;
5121;SDS011;2563;52.242;7.956;2022-08-14T14:09:55;7.87;;;6.50;;
5121;SDS011;2563;52.242;7.956;2022-08-14T14:12:22;8.97;;;6.83;;
5121;SDS011;2563;52.242;7.956;2022-08-14T14:14:48;8.20;;;6.03;;
5121;SDS011;2563;52.242;7.956;2022-08-14T14:17:15;8.57;;;6.63;;
5121;SDS011;2563;52.242;7.956;2022-08-14T14:19:42;7.97;;;6.80;;
5121;SDS011;2563;52.242;7.956;2022-08-14T14:22:14;6.80;;;6.10;;
5121;SDS011;2563;52.242;7.956;2022-08-14T14:24:40;6.50;;;5.90;;
5121;SDS011;2563;52.242;7.956;2022-08-14T14:27:06;6.67;;;5.63;;
5121;SDS011;2563;52.242;7.956;2022-08-14T14:29:32;7.13;;;6.00;;
5121;SDS011;2563;52.242;7.956;2022-08-14T14:32:00;8.33;;;6.60;;
5121;SDS011;2563;52.242;7.956;2022-08-14T14:34:27;9.87;;;5.97;;
5121;SDS011;2563;52.242;7.956;2022-08-14T14:36:54;6.50;;;5.80;;
5121;SDS011;2563;52.242;7.956;2022-08-14T14:39:21;6.40;;;5.80;;
5121;SDS011;2563;52.242;7.956;2022-08-14T14:41:52;7.17;;;6.13;;
5121;SDS011;2563;52.242;7.956;2022-08-14T14:44:26;7.20;;;5.83;;
5121;SDS011;2563;52.242;7.956;2022-08-14T14:46:58;6.40;;;5.80;;
5121;SDS011;2563;52.242;7.956;2022-08-14T14:49:25;6.97;;;6.27;;
5121;SDS011;2563;52.242;7.956;2022-08-14T14:51:53;7.87;;;6.87;;
5121;SDS011;2563;52.242;7.956;2022-08-14T14:54:20;8.50;;;6.67;;
5121;SDS011;2563;52.242;7.956;2022-08-14T14:56:49;6.70;;;5.93;;
5121;SDS011;2563;52.242;7.956;2022-08-14T14:59:16;6.83;;;6.13;;
5121;SDS011;2563;52.242;7.956;2022-08-14T15:01:42;7.70;;;6.33;;
5121;SDS011;2563;52.242;7.956;2022-08-14T15:04:12;7.73;;;6.10;;
5121;SDS011;2563;52.242;7.956;2022-08-14T15:06:37;6.43;;;5.83;;
5121;SDS011;2563;52.242;7.956;2022-08-14T15:09:03;9.93;;;6.27;;
5121;SDS011;2563;52.242;7.956;2022-08-14T15:11:29;9.20;;;5.97;;
5121;SDS011;2563;52.242;7.956;2022-08-14T15:13:55;7.67;;;6.70;;
5121;SDS011;2563;52.242;7.956;2022-08-14T15:16:20;6.90;;;6.20;;
5121;SDS011;2563;52.242;7.956;2022-08-14T15:18:46;7.10;;;6.43;;
5121;SDS011;2563;52.242;7.956;2022-08-14T15:21:12;7.20;;;6.10;;
5121;SDS011;2563;52.242;7.956;2022-08-14T15:23:38;7.03;;;6.30;;
5121;SDS011;2563;52.242;7.956;2022-08-14T15:26:05;7.13;;;6.40;;
5121;SDS011;2563;52.242;7.956;2022-08-14T15:28:30;7.40;;;6.67;;
5121;SDS011;2563;52.242;7.956;2022-08-14T15:30:59;6.43;;;5.83;;
5121;SDS011;2563;52.242;7.956;2022-08-14T15:33:25;6.67;;;6.07;;
5121;SDS011;2563;52.242;7.956;2022-08-14T15:36:09;7.20;;;6.20;;
5121;SDS011;2563;52.242;7.956;2022-08-14T15:38:34;6.90;;;6.20;;
5121;SDS011;2563;52.242;7.956;2022-08-14T15:41:00;7.10;;;5.90;;
5121;SDS011;2563;52.242;7.956;2022-08-14T15:43:26;13.10;;;6.40;;
5121;SDS011;2563;52.242;7.956;2022-08-14T15:45:52;6.70;;;6.00;;
5121;SDS011;2563;52.242;7.956;2022-08-14T15:48:18;6.43;;;5.73;;
5121;SDS011;2563;52.242;7.956;2022-08-14T15:50:44;8.20;;;5.80;;
5121;SDS011;2563;52.242;7.956;2022-08-14T15:53:10;6.63;;;6.03;;
5121;SDS011;2563;52.242;7.956;2022-08-14T15:55:35;6.83;;;5.93;;
5121;SDS011;2563;52.242;7.956;2022-08-14T15:58:05;7.30;;;6.23;;
5121;SDS011;2563;52.242;7.956;2022-08-14T16:00:31;8.07;;;7.10;;